Terminal Aerodrome Forecast
Issued by NWS Los Angeles, CA

Home | Current Version | Previous Version | Text Only | Print | Product List | Glossary On
Versions: 1 2 3 4 5 6 7 8 9 10 11 12 13 14 15 16 17 18 19 20 21 22 23 24 25 26 27 28
000
FTUS46 KLOX 192300
TAFSMX
TAF
KSMX 192339Z 2000/2024 31014KT P6SM SKC
     FM200200 30007KT P6SM SKC
     FM200500 VRB03KT P6SM BKN014
     FM200900 VRB03KT P6SM OVC009
     FM201300 VRB03KT 4SM BR OVC005
     FM201700 VRB03KT P6SM OVC010
     FM201900 30006KT P6SM SCT015
     FM202100 30011KT P6SM SCT250=

USA.gov is the U.S. government's official web portal to all federal, state and local government web resources and services.